Terminal Aerodrome Forecast
Issued by NWS

Home | Current Version | Previous Version | Text Only | Print | Product List | Glossary On
Versions: 1 2 3 4 5 6 7 8 9 10 11 12 13 14 15 16 17 18 19 20 21 22 23 24 25 26 27 28 29
000
FTAK31 PANC 072336
TAFAIL
TAF
PAIL 072336Z 0800/0824 01011KT P6SM SCT040 BKN100 WS020/09030KT
     FM080500 04012G22KT P6SM BKN040 WS020/10040KT
     FM081500 04020G30KT P6SM BKN040 WS020/12050KT
     FM082200 09018G28KT P6SM VCSH BKN035=

USA.gov is the U.S. government's official web portal to all federal, state and local government web resources and services.